Time;durP1;ratioP1;P1;durP2;ratioP2;P2;SDS_P1;SDS_P2;PMS_P1;PMS_P2;Temp;Humidity;BMP_temperature;BMP_pressure;BME280_temperature;BME280_humidity;BME280_pressure;Samples;Min_cycle;Max_cycle;Signal;HPM_P1;HPM_P2
2023/09/28 00:02:52;;;;;;;11.05;9.90;;;18.10;99.90;;;;;;5091752;28;20122;-90
2023/09/28 00:05:19;;;;;;;10.00;9.00;;;18.10;99.90;;;;;;5090184;28;20470;-91
2023/09/28 00:07:46;;;;;;;10.60;9.15;;;18.10;99.90;;;;;;5075625;28;20036;-90
2023/09/28 00:10:14;;;;;;;10.10;9.13;;;18.10;99.90;;;;;;5068314;28;20043;-90
2023/09/28 00:12:45;;;;;;;10.85;9.85;;;18.10;99.90;;;;;;5091924;28;20054;-90
2023/09/28 00:15:11;;;;;;;11.25;10.07;;;18.10;99.90;;;;;;5075351;28;20035;-91
2023/09/28 00:17:38;;;;;;;11.38;9.30;;;18.10;99.90;;;;;;5076343;28;20074;-90
2023/09/28 00:20:17;;;;;;;9.77;8.77;;;18.10;99.90;;;;;;5074991;28;20068;-90
2023/09/28 00:22:47;;;;;;;9.52;8.73;;;18.00;99.90;;;;;;5073069;28;20040;-90
2023/09/28 00:25:16;;;;;;;10.15;9.23;;;18.10;99.90;;;;;;5091894;28;20092;-90
2023/09/28 00:27:45;;;;;;;9.80;8.85;;;18.10;99.90;;;;;;5087908;28;20111;-90
2023/09/28 00:30:13;;;;;;;9.35;8.48;;;18.10;99.90;;;;;;5086874;28;20080;-90
2023/09/28 00:32:39;;;;;;;9.70;8.85;;;18.10;99.90;;;;;;5069693;28;20046;-90
2023/09/28 00:35:06;;;;;;;9.55;8.63;;;18.10;99.90;;;;;;5072695;28;20035;-90
2023/09/28 00:37:32;;;;;;;11.60;9.10;;;18.10;99.90;;;;;;5076333;28;20044;-90
2023/09/28 00:39:58;;;;;;;10.27;8.95;;;18.10;99.90;;;;;;5090452;28;20039;-90
2023/09/28 00:42:27;;;;;;;10.43;9.07;;;18.10;99.90;;;;;;5074505;28;20118;-90
2023/09/28 00:44:53;;;;;;;11.88;9.27;;;18.10;99.90;;;;;;5033998;28;1134495;-90
2023/09/28 00:47:19;;;;;;;9.23;8.43;;;18.10;99.90;;;;;;5077605;28;20035;-90
2023/09/28 00:49:46;;;;;;;9.90;9.00;;;18.10;99.90;;;;;;5092415;28;20498;-91
2023/09/28 00:52:16;;;;;;;10.20;9.15;;;18.10;99.90;;;;;;5070509;28;20520;-91
2023/09/28 00:54:47;;;;;;;10.05;9.15;;;18.10;99.90;;;;;;5091728;28;20078;-90
2023/09/28 00:57:13;;;;;;;12.98;10.05;;;18.10;99.90;;;;;;5076431;28;20065;-91
2023/09/28 00:59:40;;;;;;;10.45;9.40;;;18.20;99.90;;;;;;5092539;28;20116;-90
2023/09/28 01:02:08;;;;;;;10.05;9.20;;;18.10;99.90;;;;;;5069773;28;20058;-90
2023/09/28 01:04:35;;;;;;;11.00;9.73;;;18.10;99.90;;;;;;5084527;28;20105;-90
2023/09/28 01:07:01;;;;;;;10.90;9.68;;;18.10;99.90;;;;;;5092201;28;20036;-89
2023/09/28 01:09:27;;;;;;;10.48;9.50;;;18.10;99.90;;;;;;5070529;28;20417;-90
2023/09/28 01:11:53;;;;;;;10.80;9.63;;;18.10;99.90;;;;;;5074575;28;20032;-90
2023/09/28 01:14:21;;;;;;;10.45;9.55;;;18.10;99.90;;;;;;5075574;28;20070;-90
2023/09/28 01:16:47;;;;;;;10.90;9.80;;;18.00;99.90;;;;;;5065370;28;20044;-89
2023/09/28 01:19:13;;;;;;;9.90;9.00;;;18.10;99.90;;;;;;5085057;28;20046;-89
2023/09/28 01:21:39;;;;;;;11.55;9.80;;;18.00;99.90;;;;;;5089624;28;20048;-90
2023/09/28 01:24:06;;;;;;;10.55;9.48;;;18.20;99.90;;;;;;5074864;28;20393;-90
2023/09/28 01:26:32;;;;;;;10.57;9.40;;;18.10;99.90;;;;;;5076923;28;20035;-90
2023/09/28 01:28:58;;;;;;;9.77;8.77;;;18.10;99.90;;;;;;5090253;28;20028;-90
2023/09/28 01:31:24;;;;;;;9.35;8.45;;;18.10;99.90;;;;;;5091677;28;20061;-90
2023/09/28 01:33:49;;;;;;;9.70;8.80;;;18.10;99.90;;;;;;5069012;28;20096;-90
2023/09/28 01:36:15;;;;;;;9.88;8.88;;;18.00;99.90;;;;;;5075863;28;20484;-90
2023/09/28 01:38:54;;;;;;;9.75;8.75;;;18.00;99.90;;;;;;5073680;28;20047;-90
2023/09/28 01:41:20;;;;;;;10.05;9.02;;;18.10;99.90;;;;;;5069235;28;20040;-90
2023/09/28 01:43:45;;;;;;;9.40;8.38;;;18.00;99.90;;;;;;5073665;28;20504;-90
2023/09/28 01:46:12;;;;;;;9.63;8.70;;;18.10;99.90;;;;;;5072469;28;20061;-90
2023/09/28 01:48:37;;;;;;;10.00;9.05;;;17.90;99.90;;;;;;5076458;28;20085;-90
2023/09/28 01:51:03;;;;;;;10.63;8.95;;;18.00;99.90;;;;;;5075269;28;20027;-90
2023/09/28 01:53:29;;;;;;;10.05;9.02;;;17.90;99.90;;;;;;5091621;28;20043;-90
2023/09/28 01:55:57;;;;;;;9.32;8.43;;;17.90;99.90;;;;;;5089919;28;20038;-90
2023/09/28 01:58:23;;;;;;;9.43;8.50;;;17.90;99.90;;;;;;5075093;28;20027;-90
2023/09/28 02:00:48;;;;;;;9.73;8.75;;;17.80;99.90;;;;;;5073249;28;20039;-90
2023/09/28 02:03:14;;;;;;;9.85;8.80;;;17.90;99.90;;;;;;5073298;28;20032;-90
2023/09/28 02:05:40;;;;;;;9.57;8.57;;;17.90;99.90;;;;;;5078046;28;20058;-91
2023/09/28 02:08:06;;;;;;;10.07;9.07;;;17.80;99.90;;;;;;5118918;28;20035;-89
2023/09/28 02:10:32;;;;;;;10.05;8.60;;;17.80;99.90;;;;;;5089505;28;20044;-90
2023/09/28 02:12:59;;;;;;;10.27;9.25;;;17.80;99.90;;;;;;5096579;28;20086;-90
2023/09/28 02:15:24;;;;;;;9.10;8.20;;;17.70;99.90;;;;;;5120088;28;20020;-90
2023/09/28 02:17:50;;;;;;;11.45;8.77;;;17.60;99.90;;;;;;5090937;28;20039;-89
2023/09/28 02:20:18;;;;;;;9.35;8.50;;;17.60;99.90;;;;;;5073895;27;20085;-90
2023/09/28 02:22:45;;;;;;;10.40;9.05;;;17.60;99.90;;;;;;5095150;28;20036;-89
2023/09/28 02:25:22;;;;;;;10.52;9.38;;;17.60;99.90;;;;;;5096750;28;20032;-90
2023/09/28 02:27:49;;;;;;;9.85;8.85;;;17.60;99.90;;;;;;5077829;28;20553;-90
2023/09/28 02:30:19;;;;;;;10.68;9.57;;;17.40;99.90;;;;;;5095150;28;20039;-89
2023/09/28 02:32:46;;;;;;;10.13;9.25;;;17.40;99.90;;;;;;5079025;28;20046;-90
2023/09/28 02:35:14;;;;;;;10.70;9.70;;;17.50;99.90;;;;;;5071345;28;20042;-90
2023/09/28 02:37:41;;;;;;;10.85;9.85;;;17.40;99.90;;;;;;5092969;28;20043;-90
2023/09/28 02:40:09;;;;;;;10.90;9.88;;;17.30;99.90;;;;;;5075460;28;20497;-89
2023/09/28 02:42:35;;;;;;;11.05;9.77;;;17.30;99.90;;;;;;5094039;28;20046;-90
2023/09/28 02:45:00;;;;;;;15.23;10.40;;;17.20;99.90;;;;;;5087215;28;20118;-89
2023/09/28 02:47:27;;;;;;;10.68;9.57;;;17.20;99.90;;;;;;5085416;28;20039;-89
2023/09/28 02:49:52;;;;;;;10.80;9.80;;;17.10;99.90;;;;;;5079131;28;20038;-89
2023/09/28 02:52:19;;;;;;;10.88;9.80;;;17.10;99.90;;;;;;5066954;28;20128;-90
2023/09/28 02:54:44;;;;;;;10.57;9.57;;;17.10;99.90;;;;;;5073256;28;20127;-89
2023/09/28 02:57:10;;;;;;;10.57;9.48;;;17.10;99.90;;;;;;5077163;28;20067;-89
2023/09/28 02:59:36;;;;;;;10.40;9.40;;;17.00;99.90;;;;;;5072560;28;20609;-88
2023/09/28 03:02:03;;;;;;;9.77;8.95;;;17.00;99.90;;;;;;5092306;28;20044;-89
2023/09/28 03:04:33;;;;;;;10.07;9.18;;;17.10;99.90;;;;;;5077126;28;20044;-89
2023/09/28 03:06:59;;;;;;;10.10;9.10;;;17.00;99.90;;;;;;5094459;28;20048;-90
2023/09/28 03:09:26;;;;;;;9.30;8.40;;;16.90;99.90;;;;;;5079286;28;20051;-89
2023/09/28 03:11:51;;;;;;;9.60;8.60;;;16.90;99.90;;;;;;5093889;28;20504;-89
2023/09/28 03:14:18;;;;;;;9.40;8.50;;;16.90;99.90;;;;;;5071180;28;20032;-89
2023/09/28 03:16:43;;;;;;;9.45;8.55;;;16.90;99.90;;;;;;5091916;28;20065;-89
2023/09/28 03:19:10;;;;;;;9.82;9.00;;;16.80;99.90;;;;;;5077371;28;20404;-89
2023/09/28 03:21:36;;;;;;;9.75;8.25;;;16.80;99.90;;;;;;5078122;28;20127;-89
2023/09/28 03:24:02;;;;;;;12.02;7.95;;;16.80;99.90;;;;;;5075722;28;20074;-89
2023/09/28 03:26:31;;;;;;;9.57;7.63;;;16.80;99.90;;;;;;5092504;28;20114;-89
2023/09/28 03:28:57;;;;;;;8.73;7.47;;;16.80;99.90;;;;;;5093610;28;20063;-88
2023/09/28 03:31:27;;;;;;;8.98;7.82;;;16.90;99.90;;;;;;5095062;28;20516;-88
2023/09/28 03:33:56;;;;;;;8.45;7.65;;;16.80;99.90;;;;;;5076225;28;20035;-90
2023/09/28 03:36:22;;;;;;;8.45;7.65;;;16.80;99.90;;;;;;5095313;28;20036;-89
2023/09/28 03:38:48;;;;;;;9.43;7.53;;;16.80;99.90;;;;;;5068151;28;20088;-89
2023/09/28 03:41:14;;;;;;;7.65;6.85;;;16.70;99.90;;;;;;5077721;28;20066;-89
2023/09/28 03:43:42;;;;;;;7.75;7.00;;;16.70;99.90;;;;;;5094958;28;20439;-89
2023/09/28 03:46:08;;;;;;;8.43;7.57;;;16.70;99.90;;;;;;5077933;28;20488;-89
2023/09/28 03:48:34;;;;;;;7.95;7.15;;;16.80;99.90;;;;;;5077704;28;20553;-89
2023/09/28 03:51:00;;;;;;;8.57;7.75;;;16.70;99.90;;;;;;5070278;28;20122;-90
2023/09/28 03:53:26;;;;;;;8.18;7.00;;;16.60;99.90;;;;;;5095516;28;20047;-89
2023/09/28 03:55:52;;;;;;;9.20;7.63;;;16.60;99.90;;;;;;5076324;28;20038;-89
2023/09/28 03:58:18;;;;;;;8.50;7.75;;;16.60;99.90;;;;;;5094748;28;20112;-89
2023/09/28 04:00:44;;;;;;;9.07;8.00;;;16.50;99.90;;;;;;5094581;28;20031;-89
2023/09/28 04:03:10;;;;;;;8.73;7.70;;;16.50;99.90;;;;;;5092518;28;21474;-89
2023/09/28 04:05:37;;;;;;;9.23;8.32;;;16.50;99.90;;;;;;5076588;28;20036;-89
2023/09/28 04:08:03;;;;;;;9.95;7.93;;;16.40;99.90;;;;;;5077521;28;20542;-89
2023/09/28 04:10:28;;;;;;;8.65;7.85;;;16.40;99.90;;;;;;5071602;28;20075;-90
2023/09/28 04:12:54;;;;;;;8.05;7.25;;;16.30;99.90;;;;;;5075135;28;20040;-89
2023/09/28 04:15:20;;;;;;;8.85;7.65;;;16.30;99.90;;;;;;5074853;28;20040;-89
2023/09/28 04:17:45;;;;;;;9.05;7.93;;;16.20;99.90;;;;;;5094024;28;20390;-89
2023/09/28 04:20:12;;;;;;;7.90;7.10;;;16.20;99.90;;;;;;5075671;28;20489;-88
2023/09/28 04:22:38;;;;;;;8.68;7.88;;;16.10;99.90;;;;;;5090875;28;20046;-87
2023/09/28 04:25:04;;;;;;;8.73;7.93;;;16.10;99.90;;;;;;5094495;28;20513;-88
2023/09/28 04:27:29;;;;;;;8.98;7.90;;;16.10;99.90;;;;;;5088844;28;20035;-86
2023/09/28 04:29:55;;;;;;;8.88;8.07;;;16.10;99.90;;;;;;5090967;28;20061;-88
2023/09/28 04:32:21;;;;;;;10.35;8.20;;;16.10;99.90;;;;;;5071031;28;20467;-88
2023/09/28 04:34:46;;;;;;;8.68;7.88;;;16.10;99.90;;;;;;5064187;28;20122;-87
2023/09/28 04:37:12;;;;;;;8.90;8.00;;;16.10;99.90;;;;;;5068477;28;20047;-88
2023/09/28 04:39:37;;;;;;;9.18;8.27;;;16.10;99.90;;;;;;5090443;28;20413;-87
2023/09/28 04:42:04;;;;;;;9.65;8.30;;;16.00;99.90;;;;;;5076293;28;20062;-86
2023/09/28 04:44:30;;;;;;;9.75;8.75;;;16.00;99.90;;;;;;5069874;28;20051;-86
2023/09/28 04:46:56;;;;;;;10.93;9.05;;;16.00;99.90;;;;;;5069814;28;20780;-87
2023/09/28 04:49:22;;;;;;;9.23;8.40;;;16.10;99.90;;;;;;5091919;28;20031;-86
2023/09/28 04:51:47;;;;;;;9.80;8.77;;;16.00;99.90;;;;;;5075827;28;20089;-87
2023/09/28 04:54:14;;;;;;;9.63;8.77;;;16.00;99.90;;;;;;5093732;28;20058;-86
2023/09/28 04:56:40;;;;;;;9.65;8.65;;;16.00;99.90;;;;;;5075524;28;20070;-87
2023/09/28 04:59:06;;;;;;;10.15;9.02;;;16.00;99.90;;;;;;5075380;28;20490;-86
2023/09/28 05:01:32;;;;;;;9.90;9.05;;;16.00;99.90;;;;;;5074339;28;20047;-87
2023/09/28 05:03:59;;;;;;;10.82;9.38;;;16.00;99.90;;;;;;5114935;28;20051;-85
2023/09/28 05:06:24;;;;;;;10.07;9.10;;;16.00;99.90;;;;;;5100067;28;20507;-85
2023/09/28 05:08:50;;;;;;;13.18;9.63;;;15.90;99.90;;;;;;5064866;28;20035;-85
2023/09/28 05:11:16;;;;;;;10.52;9.43;;;15.80;99.90;;;;;;5072749;28;20028;-84
2023/09/28 05:13:42;;;;;;;9.93;9.00;;;15.90;99.90;;;;;;5089389;28;20122;-85
2023/09/28 05:16:08;;;;;;;10.98;9.88;;;15.90;99.90;;;;;;5089402;28;20132;-86
2023/09/28 05:18:35;;;;;;;11.73;8.95;;;15.80;99.90;;;;;;5073429;28;20477;-85
2023/09/28 05:21:03;;;;;;;10.85;9.20;;;15.80;99.90;;;;;;5072149;28;20096;-86
2023/09/28 05:23:29;;;;;;;10.32;9.30;;;15.80;99.90;;;;;;5088519;28;20411;-86
2023/09/28 05:25:58;;;;;;;9.25;8.38;;;15.80;99.90;;;;;;5071083;28;20032;-86
2023/09/28 05:28:23;;;;;;;9.90;8.90;;;15.80;99.90;;;;;;5088243;28;20534;-86
2023/09/28 05:30:49;;;;;;;10.60;9.50;;;15.70;99.90;;;;;;5088535;28;20043;-86
2023/09/28 05:33:15;;;;;;;10.82;9.50;;;15.70;99.90;;;;;;5072256;28;20036;-86
2023/09/28 05:35:41;;;;;;;10.65;9.55;;;15.70;99.90;;;;;;5087866;28;20047;-86
2023/09/28 05:38:06;;;;;;;9.73;8.73;;;15.60;99.90;;;;;;5088463;28;20549;-86
2023/09/28 05:40:32;;;;;;;11.65;9.07;;;15.60;99.90;;;;;;5067147;28;20035;-86
2023/09/28 05:42:58;;;;;;;9.02;8.23;;;15.50;99.90;;;;;;5077244;28;20080;-86
2023/09/28 05:45:23;;;;;;;9.77;8.80;;;15.50;99.90;;;;;;5094722;28;20035;-86
2023/09/28 05:47:49;;;;;;;9.88;8.88;;;15.60;99.90;;;;;;5090892;28;20032;-86
2023/09/28 05:50:15;;;;;;;9.63;8.68;;;15.60;99.90;;;;;;5092379;28;20118;-86
2023/09/28 05:52:41;;;;;;;9.40;8.50;;;15.60;99.90;;;;;;5074378;28;20074;-86
2023/09/28 05:55:07;;;;;;;12.65;9.07;;;15.60;99.90;;;;;;5095474;28;20075;-86
2023/09/28 05:57:33;;;;;;;8.95;8.07;;;15.60;99.90;;;;;;5094868;28;20082;-87
2023/09/28 05:59:58;;;;;;;10.00;8.35;;;15.60;99.90;;;;;;5095826;28;20079;-87
2023/09/28 06:02:24;;;;;;;10.13;9.13;;;15.60;99.90;;;;;;5096107;28;20037;-87
2023/09/28 06:04:50;;;;;;;9.05;8.15;;;15.60;99.90;;;;;;5092622;28;20756;-85
2023/09/28 06:07:15;;;;;;;9.10;8.20;;;15.70;99.90;;;;;;5093919;28;20032;-86
2023/09/28 06:09:42;;;;;;;10.57;8.30;;;15.80;99.90;;;;;;5094948;28;20043;-86
2023/09/28 06:12:07;;;;;;;11.70;8.77;;;15.70;99.90;;;;;;5091841;28;20093;-88
2023/09/28 06:14:34;;;;;;;8.80;7.95;;;15.80;99.90;;;;;;5079207;28;20043;-86
2023/09/28 06:17:00;;;;;;;12.32;8.57;;;15.80;99.90;;;;;;5092373;28;20035;-85
2023/09/28 06:19:27;;;;;;;9.77;8.77;;;15.90;99.90;;;;;;5075506;28;20058;-81
2023/09/28 06:21:54;;;;;;;10.60;8.63;;;15.90;99.90;;;;;;5088902;28;20500;-83
2023/09/28 06:24:20;;;;;;;11.68;8.32;;;15.90;99.90;;;;;;5076758;28;20065;-82
2023/09/28 06:26:45;;;;;;;10.90;8.05;;;15.90;99.90;;;;;;5076332;28;20038;-87
2023/09/28 06:29:11;;;;;;;9.25;7.97;;;16.00;99.90;;;;;;5093852;28;20570;-87
2023/09/28 06:31:38;;;;;;;10.52;6.88;;;16.00;99.90;;;;;;5089331;28;20516;-87
2023/09/28 06:34:03;;;;;;;9.45;7.57;;;16.00;99.90;;;;;;5077078;28;20038;-87
2023/09/28 06:36:29;;;;;;;10.27;6.57;;;16.10;99.90;;;;;;5077313;28;20039;-87
2023/09/28 06:38:55;;;;;;;11.35;6.35;;;16.10;99.90;;;;;;5092427;28;20118;-87
2023/09/28 06:41:21;;;;;;;11.95;6.47;;;16.10;99.90;;;;;;5093827;28;20066;-87
2023/09/28 06:43:48;;;;;;;12.50;6.53;;;16.20;99.90;;;;;;5072420;28;20032;-87
2023/09/28 06:46:14;;;;;;;7.43;5.55;;;16.30;99.90;;;;;;5092032;28;20088;-87
2023/09/28 06:48:40;;;;;;;13.05;5.93;;;16.30;99.90;;;;;;5095537;28;20044;-87
2023/09/28 06:51:05;;;;;;;14.05;6.45;;;16.30;99.90;;;;;;5077658;28;20553;-87
2023/09/28 06:53:32;;;;;;;16.00;6.68;;;16.50;99.90;;;;;;5079251;28;20127;-87
2023/09/28 06:55:59;;;;;;;11.73;6.07;;;16.40;99.90;;;;;;5093351;28;20096;-87
2023/09/28 06:58:25;;;;;;;17.33;5.57;;;16.40;99.90;;;;;;5095324;28;20044;-87
2023/09/28 07:00:52;;;;;;;13.55;5.80;;;16.50;99.90;;;;;;5075980;28;20489;-88
2023/09/28 07:03:19;;;;;;;13.70;5.53;;;16.50;99.90;;;;;;5096221;28;20036;-87
2023/09/28 07:05:45;;;;;;;13.10;5.30;;;16.50;99.90;;;;;;5094975;28;20040;-87
2023/09/28 07:08:11;;;;;;;12.57;5.30;;;16.60;99.90;;;;;;5094555;28;20550;-87
2023/09/28 07:10:37;;;;;;;11.75;5.15;;;16.60;99.90;;;;;;5072367;28;20039;-87
2023/09/28 07:13:05;;;;;;;10.93;4.90;;;16.60;99.90;;;;;;5077646;28;20043;-88
2023/09/28 07:15:35;;;;;;;15.32;5.50;;;16.70;99.90;;;;;;5078102;28;20040;-87
2023/09/28 07:18:00;;;;;;;11.50;5.10;;;16.70;99.90;;;;;;5092971;28;20035;-87
2023/09/28 07:20:27;;;;;;;17.13;5.95;;;16.80;99.90;;;;;;5078007;28;20493;-87
2023/09/28 07:22:53;;;;;;;18.52;6.43;;;16.80;99.90;;;;;;5091643;28;20405;-88
2023/09/28 07:25:19;;;;;;;15.15;5.10;;;16.90;99.90;;;;;;5091552;28;20036;-88
2023/09/28 07:27:49;;;;;;;11.93;4.95;;;16.90;99.90;;;;;;5091912;28;20031;-88
2023/09/28 07:30:15;;;;;;;15.40;5.28;;;17.00;99.90;;;;;;5090796;28;20047;-88
2023/09/28 07:32:41;;;;;;;13.68;5.50;;;17.00;99.90;;;;;;5078897;28;20047;-89
2023/09/28 07:35:11;;;;;;;18.60;5.80;;;17.10;99.90;;;;;;5103681;28;20035;-88
2023/09/28 07:37:37;;;;;;;14.25;4.80;;;17.30;99.90;;;;;;5084254;28;20126;-89
2023/09/28 07:40:04;;;;;;;15.65;5.50;;;17.40;99.90;;;;;;5089090;28;20039;-89
2023/09/28 07:42:30;;;;;;;10.98;5.15;;;17.50;99.90;;;;;;5101252;28;20075;-88
2023/09/28 07:44:56;;;;;;;16.90;5.22;;;17.60;99.90;;;;;;5075360;28;20694;-88
2023/09/28 07:47:21;;;;;;;14.15;5.75;;;17.80;99.90;;;;;;5093836;28;20024;-86
2023/09/28 07:49:47;;;;;;;11.55;5.30;;;18.00;99.90;;;;;;5075179;28;20023;-86
2023/09/28 07:52:13;;;;;;;14.75;5.25;;;18.20;99.90;;;;;;5081026;28;20032;-86
2023/09/28 07:54:39;;;;;;;16.88;5.25;;;18.50;99.90;;;;;;5095124;28;20092;-86
2023/09/28 07:57:07;;;;;;;14.23;5.60;;;18.60;99.90;;;;;;5094168;28;20448;-86
2023/09/28 07:59:34;;;;;;;13.93;5.20;;;18.70;99.90;;;;;;5095689;28;20078;-87
2023/09/28 08:02:00;;;;;;;16.83;6.00;;;18.90;99.90;;;;;;5102216;28;20059;-84
2023/09/28 08:04:26;;;;;;;19.33;6.45;;;19.10;99.90;;;;;;5083624;28;20407;-83
2023/09/28 08:06:52;;;;;;;14.75;5.60;;;19.20;99.90;;;;;;5093585;28;20035;-88
2023/09/28 08:09:19;;;;;;;17.50;5.53;;;19.50;99.90;;;;;;5094642;28;20590;-88
2023/09/28 08:11:47;;;;;;;14.70;4.78;;;19.80;99.90;;;;;;5087619;28;20063;-90
2023/09/28 08:14:15;;;;;;;18.55;6.07;;;20.10;99.90;;;;;;5092162;28;20047;-89
2023/09/28 08:16:45;;;;;;;18.00;5.13;;;20.30;99.90;;;;;;5063740;28;20089;-88
2023/09/28 08:19:11;;;;;;;19.23;4.97;;;20.40;99.90;;;;;;5091293;28;20044;-86
2023/09/28 08:21:38;;;;;;;15.70;5.20;;;20.30;99.90;;;;;;5075956;28;20050;-86
2023/09/28 08:24:05;;;;;;;11.18;5.25;;;20.30;99.90;;;;;;5091083;28;20039;-87
2023/09/28 08:26:30;;;;;;;19.05;5.80;;;20.50;99.90;;;;;;5076801;28;20039;-87
2023/09/28 08:28:58;;;;;;;15.63;4.80;;;20.70;99.90;;;;;;5093832;28;20119;-88
2023/09/28 08:31:24;;;;;;;12.15;4.70;;;20.60;99.90;;;;;;5093598;28;20039;-88
2023/09/28 08:33:50;;;;;;;19.85;5.10;;;20.80;99.90;;;;;;5091743;28;20038;-89
2023/09/28 08:36:16;;;;;;;16.65;5.18;;;20.80;99.90;;;;;;5076951;28;20039;-88
2023/09/28 08:38:41;;;;;;;15.38;4.75;;;20.70;99.90;;;;;;5074691;28;20027;-88
2023/09/28 08:41:09;;;;;;;15.57;4.97;;;20.80;99.90;;;;;;5085735;28;20041;-87
2023/09/28 08:43:49;;;;;;;16.35;5.13;;;20.90;99.90;;;;;;5071046;28;20040;-89
2023/09/28 08:46:15;;;;;;;14.68;5.10;;;20.80;99.90;;;;;;5066824;28;20038;-90
2023/09/28 08:48:45;;;;;;;18.17;5.55;;;20.80;99.90;;;;;;5076599;28;20497;-87
2023/09/28 08:51:11;;;;;;;12.73;4.63;;;20.70;99.90;;;;;;5091106;28;20063;-87
2023/09/28 08:53:48;;;;;;;20.60;4.97;;;20.70;99.90;;;;;;5092818;28;20476;-87
2023/09/28 08:56:14;;;;;;;16.00;5.03;;;20.80;99.90;;;;;;5088293;28;20035;-87
2023/09/28 08:58:43;;;;;;;16.77;4.97;;;20.90;99.90;;;;;;5092168;28;20043;-87
2023/09/28 09:01:10;;;;;;;21.50;5.35;;;20.90;99.90;;;;;;5093425;28;20032;-87
2023/09/28 09:03:38;;;;;;;16.60;4.50;;;20.80;99.90;;;;;;5074762;28;20040;-87
2023/09/28 09:06:05;;;;;;;12.38;4.55;;;20.70;99.90;;;;;;5076653;28;20049;-87
2023/09/28 09:08:37;;;;;;;20.77;5.53;;;20.70;99.90;;;;;;5091418;28;20036;-87
2023/09/28 09:11:02;;;;;;;17.65;5.25;;;20.70;99.90;;;;;;5075563;28;20106;-87
2023/09/28 09:13:29;;;;;;;18.00;5.10;;;20.70;99.90;;;;;;5092709;28;20150;-87
2023/09/28 09:15:55;;;;;;;15.40;4.60;;;20.60;99.90;;;;;;5073522;28;20084;-87
2023/09/28 09:18:24;;;;;;;15.55;5.38;;;20.50;99.90;;;;;;5075891;28;20035;-87
2023/09/28 09:20:56;;;;;;;14.57;4.30;;;20.40;99.90;;;;;;5090419;28;20051;-87
2023/09/28 09:23:22;;;;;;;13.33;4.53;;;20.50;99.90;;;;;;5091712;28;20036;-81
2023/09/28 09:25:48;;;;;;;15.65;5.00;;;20.60;99.90;;;;;;5091613;28;20031;-89
2023/09/28 09:28:34;;;;;;;19.10;5.18;;;20.60;99.90;;;;;;5074575;28;20504;-87
2023/09/28 09:31:03;;;;;;;16.98;5.28;;;20.50;99.90;;;;;;5074856;28;20054;-88
2023/09/28 09:33:29;;;;;;;20.92;5.65;;;20.40;99.90;;;;;;5092473;28;20050;-88
2023/09/28 09:35:55;;;;;;;17.55;6.18;;;20.40;99.90;;;;;;5092795;28;20451;-87
2023/09/28 09:38:27;;;;;;;20.80;5.25;;;20.30;99.90;;;;;;5063656;28;20468;-87
2023/09/28 09:40:58;;;;;;;16.38;4.72;;;20.40;99.90;;;;;;5092072;28;20086;-87
2023/09/28 09:43:24;;;;;;;23.85;4.90;;;20.50;99.90;;;;;;5092210;28;20552;-87
2023/09/28 09:45:49;;;;;;;18.02;4.60;;;20.40;99.90;;;;;;5092677;28;20122;-87
2023/09/28 09:48:16;;;;;;;16.58;5.15;;;20.30;99.90;;;;;;5092477;28;20039;-87
2023/09/28 09:50:42;;;;;;;21.30;4.97;;;20.10;99.90;;;;;;5092406;28;20431;-87
2023/09/28 09:53:10;;;;;;;19.70;5.50;;;20.10;99.90;;;;;;5073292;28;20520;-87
2023/09/28 09:55:41;;;;;;;24.33;5.85;;;20.30;99.90;;;;;;5075903;28;20046;-87
2023/09/28 09:58:13;;;;;;;20.60;5.82;;;20.40;99.90;;;;;;5075414;28;20092;-88
2023/09/28 10:00:40;;;;;;;12.00;3.97;;;20.40;99.90;;;;;;5091939;28;20504;-88
2023/09/28 10:03:08;;;;;;;22.23;5.50;;;20.70;99.90;;;;;;5091989;28;20157;-87
2023/09/28 10:05:36;;;;;;;16.40;4.40;;;20.80;99.90;;;;;;5075592;28;20028;-87
2023/09/28 10:08:05;;;;;;;15.07;3.80;;;20.70;99.90;;;;;;5071881;28;20028;-88
2023/09/28 10:10:33;;;;;;;17.33;4.68;;;20.80;99.90;;;;;;5091765;28;20525;-87
2023/09/28 10:13:00;;;;;;;18.17;4.15;;;20.80;99.90;;;;;;5092544;28;20493;-87
2023/09/28 10:15:26;;;;;;;17.77;4.78;;;20.80;99.90;;;;;;5091734;28;20048;-87
2023/09/28 10:17:53;;;;;;;17.60;4.20;;;21.00;99.90;;;;;;5091894;28;20097;-87
2023/09/28 10:20:19;;;;;;;15.57;4.10;;;21.10;99.90;;;;;;5073546;28;20046;-87
2023/09/28 10:22:46;;;;;;;14.15;4.07;;;21.10;99.90;;;;;;5071776;28;20386;-88
2023/09/28 10:25:15;;;;;;;19.77;4.15;;;21.00;99.90;;;;;;5068374;28;20062;-88
2023/09/28 10:27:43;;;;;;;18.92;4.50;;;20.90;99.90;;;;;;5078637;28;20036;-87
2023/09/28 10:30:20;;;;;;;14.50;3.83;;;20.80;99.90;;;;;;5094365;28;20111;-87
2023/09/28 10:32:46;;;;;;;17.80;4.63;;;20.70;99.90;;;;;;5093081;28;20043;-88
2023/09/28 10:35:14;;;;;;;16.17;4.65;;;20.70;99.90;;;;;;5078628;28;20027;-88
2023/09/28 10:37:40;;;;;;;18.80;4.32;;;20.70;99.90;;;;;;5077324;28;20051;-87
2023/09/28 10:40:06;;;;;;;20.40;5.15;;;20.70;99.90;;;;;;5078935;28;20405;-87
2023/09/28 10:42:32;;;;;;;16.67;4.35;;;20.60;99.90;;;;;;5078624;28;20040;-87
2023/09/28 10:45:00;;;;;;;17.67;4.80;;;20.60;99.90;;;;;;5077361;28;20077;-89
2023/09/28 10:47:27;;;;;;;18.55;4.30;;;20.80;99.90;;;;;;5096373;28;20044;-88
2023/09/28 10:50:04;;;;;;;16.42;4.50;;;20.70;99.90;;;;;;5064872;28;20122;-87
2023/09/28 10:52:30;;;;;;;17.40;4.28;;;20.70;99.90;;;;;;5071821;28;20036;-87
2023/09/28 10:54:56;;;;;;;15.27;4.18;;;21.20;99.90;;;;;;5078524;28;20180;-87
2023/09/28 10:57:31;;;;;;;21.45;5.60;;;21.60;99.90;;;;;;5095774;28;20034;-88
2023/09/28 10:59:59;;;;;;;15.65;3.88;;;21.90;99.90;;;;;;5093988;28;20036;-87
2023/09/28 11:02:25;;;;;;;18.13;4.07;;;21.90;99.90;;;;;;5077031;28;20050;-89
2023/09/28 11:04:50;;;;;;;15.38;4.28;;;21.90;99.90;;;;;;5076938;28;20039;-88
2023/09/28 11:07:16;;;;;;;12.68;4.55;;;22.30;99.90;;;;;;5095951;28;20531;-87
2023/09/28 11:09:42;;;;;;;14.98;4.00;;;22.40;99.90;;;;;;5094767;28;20513;-88
2023/09/28 11:12:10;;;;;;;15.35;4.20;;;22.50;99.90;;;;;;5091521;28;20043;-88
2023/09/28 11:14:41;;;;;;;15.55;4.63;;;22.50;99.90;;;;;;5078633;28;20386;-88
2023/09/28 11:17:09;;;;;;;13.35;3.75;;;22.50;99.90;;;;;;5078101;28;20035;-88
2023/09/28 11:19:35;;;;;;;13.80;3.80;;;22.50;99.90;;;;;;5093350;28;20089;-88
2023/09/28 11:22:01;;;;;;;14.80;4.15;;;22.40;99.90;;;;;;5076042;28;20386;-88
2023/09/28 11:24:26;;;;;;;18.15;4.28;;;22.30;99.90;;;;;;5095255;28;20114;-88
2023/09/28 11:26:52;;;;;;;17.58;4.10;;;22.30;99.90;;;;;;5092695;28;20058;-88
2023/09/28 11:29:18;;;;;;;12.63;3.70;;;22.40;99.90;;;;;;5073204;28;20075;-88
2023/09/28 11:31:50;;;;;;;15.55;3.83;;;22.80;99.90;;;;;;5090939;28;20039;-87
2023/09/28 11:34:37;;;;;;;17.90;5.15;;;22.80;99.90;;;;;;5092903;28;20040;-88
2023/09/28 11:37:09;;;;;;;12.15;3.47;;;22.90;99.90;;;;;;5071841;28;20089;-88
2023/09/28 11:39:36;;;;;;;18.50;4.63;;;23.00;99.90;;;;;;5075013;28;20047;-88
2023/09/28 11:42:03;;;;;;;17.70;4.60;;;23.00;99.90;;;;;;5076839;28;20039;-87
2023/09/28 11:44:29;;;;;;;15.43;4.20;;;22.90;99.90;;;;;;5076049;28;20630;-87
2023/09/28 11:46:55;;;;;;;15.93;4.43;;;23.00;99.90;;;;;;5075667;28;20042;-87
2023/09/28 11:49:22;;;;;;;17.13;4.40;;;23.00;99.90;;;;;;5094064;28;20096;-88
2023/09/28 11:51:48;;;;;;;11.13;4.20;;;23.40;99.90;;;;;;5075535;28;20043;-88
2023/09/28 11:54:16;;;;;;;11.98;4.57;;;23.60;99.90;;;;;;5095166;28;20186;-88
2023/09/28 11:56:42;;;;;;;12.50;4.05;;;23.90;99.90;;;;;;5091282;28;20078;-87
2023/09/28 11:59:09;;;;;;;15.73;4.07;;;24.10;99.90;;;;;;5092206;28;20656;-88
2023/09/28 12:01:35;;;;;;;14.90;4.18;;;23.80;99.90;;;;;;5076657;28;20035;-88
2023/09/28 12:04:01;;;;;;;18.98;5.45;;;23.60;99.90;;;;;;5094894;28;20027;-89
2023/09/28 12:06:27;;;;;;;14.27;4.82;;;23.40;99.90;;;;;;5094615;28;20167;-88
2023/09/28 12:08:53;;;;;;;14.68;4.50;;;23.40;99.90;;;;;;5092282;28;20027;-88
2023/09/28 12:11:18;;;;;;;13.50;4.15;;;23.30;99.90;;;;;;5092064;28;20027;-88
2023/09/28 12:13:44;;;;;;;12.88;4.05;;;23.30;99.90;;;;;;5092161;28;20043;-88
2023/09/28 12:16:11;;;;;;;14.45;4.35;;;23.20;99.90;;;;;;5073804;28;20120;-88
2023/09/28 12:18:36;;;;;;;15.52;4.45;;;23.30;99.90;;;;;;5091069;28;20039;-87
2023/09/28 12:21:02;;;;;;;16.08;4.38;;;23.20;99.90;;;;;;5092227;28;20036;-88
2023/09/28 12:23:28;;;;;;;13.93;4.05;;;23.20;99.90;;;;;;5091945;28;20085;-88
2023/09/28 12:25:54;;;;;;;12.45;3.35;;;23.20;99.90;;;;;;5093214;28;20085;-88
2023/09/28 12:28:22;;;;;;;13.38;3.67;;;23.20;99.90;;;;;;5093499;28;20068;-88
2023/09/28 12:30:48;;;;;;;14.40;4.05;;;23.20;99.90;;;;;;5074387;28;20046;-89
2023/09/28 12:33:13;;;;;;;11.90;3.78;;;22.90;99.90;;;;;;5088522;28;20031;-88
2023/09/28 12:35:39;;;;;;;12.98;4.38;;;22.80;99.90;;;;;;5072226;28;20040;-88
2023/09/28 12:38:07;;;;;;;12.27;3.88;;;23.00;99.90;;;;;;5092536;28;20040;-88
2023/09/28 12:40:34;;;;;;;15.77;3.95;;;23.30;99.90;;;;;;5075737;28;20461;-88